sensor_id;sensor_type;location;lat;lon;timestamp;P1;durP1;ratioP1;P2;durP2;ratioP2
787;SDS011;16074;42.708;23.312;2022-11-20T00:01:06;7.30;;;6.63;;
787;SDS011;16074;42.708;23.312;2022-11-20T00:03:36;6.60;;;6.10;;
787;SDS011;16074;42.708;23.312;2022-11-20T00:06:05;7.33;;;5.80;;
787;SDS011;16074;42.708;23.312;2022-11-20T00:08:35;9.27;;;6.37;;
787;SDS011;16074;42.708;23.312;2022-11-20T00:11:04;7.67;;;5.87;;
787;SDS011;16074;42.708;23.312;2022-11-20T00:13:38;5.87;;;5.37;;
787;SDS011;16074;42.708;23.312;2022-11-20T00:16:08;5.47;;;4.90;;
787;SDS011;16074;42.708;23.312;2022-11-20T00:18:39;3.30;;;3.10;;
787;SDS011;16074;42.708;23.312;2022-11-20T00:21:09;4.40;;;3.70;;
787;SDS011;16074;42.708;23.312;2022-11-20T00:23:39;4.27;;;3.30;;
787;SDS011;16074;42.708;23.312;2022-11-20T00:26:09;4.67;;;4.30;;
787;SDS011;16074;42.708;23.312;2022-11-20T00:28:39;4.27;;;3.97;;
787;SDS011;16074;42.708;23.312;2022-11-20T00:31:09;4.03;;;3.73;;
787;SDS011;16074;42.708;23.312;2022-11-20T00:33:39;4.03;;;3.73;;
787;SDS011;16074;42.708;23.312;2022-11-20T00:36:08;3.93;;;3.53;;
787;SDS011;16074;42.708;23.312;2022-11-20T00:38:38;2.53;;;2.27;;
787;SDS011;16074;42.708;23.312;2022-11-20T00:41:07;2.40;;;2.23;;
787;SDS011;16074;42.708;23.312;2022-11-20T00:43:36;1.70;;;1.60;;
787;SDS011;16074;42.708;23.312;2022-11-20T00:46:06;1.97;;;1.87;;
787;SDS011;16074;42.708;23.312;2022-11-20T00:48:37;2.70;;;1.73;;
787;SDS011;16074;42.708;23.312;2022-11-20T00:51:05;1.67;;;1.60;;
787;SDS011;16074;42.708;23.312;2022-11-20T00:53:33;1.53;;;1.47;;
787;SDS011;16074;42.708;23.312;2022-11-20T00:56:03;1.80;;;1.07;;
787;SDS011;16074;42.708;23.312;2022-11-20T00:58:32;2.33;;;1.17;;
787;SDS011;16074;42.708;23.312;2022-11-20T01:01:03;0.97;;;0.97;;
787;SDS011;16074;42.708;23.312;2022-11-20T01:03:33;0.97;;;0.97;;
787;SDS011;16074;42.708;23.312;2022-11-20T01:06:05;1.27;;;1.27;;
787;SDS011;16074;42.708;23.312;2022-11-20T01:08:35;1.10;;;1.10;;
787;SDS011;16074;42.708;23.312;2022-11-20T01:11:05;5.50;;;1.40;;
787;SDS011;16074;42.708;23.312;2022-11-20T01:13:35;1.70;;;1.60;;
787;SDS011;16074;42.708;23.312;2022-11-20T01:16:08;1.80;;;1.10;;
787;SDS011;16074;42.708;23.312;2022-11-20T01:18:38;1.27;;;1.17;;
787;SDS011;16074;42.708;23.312;2022-11-20T01:21:10;5.43;;;1.40;;
787;SDS011;16074;42.708;23.312;2022-11-20T01:23:40;1.73;;;1.30;;
787;SDS011;16074;42.708;23.312;2022-11-20T01:26:10;1.30;;;1.27;;
787;SDS011;16074;42.708;23.312;2022-11-20T01:28:41;1.30;;;1.30;;
787;SDS011;16074;42.708;23.312;2022-11-20T01:31:11;4.80;;;4.40;;
787;SDS011;16074;42.708;23.312;2022-11-20T01:33:40;1.60;;;1.50;;
787;SDS011;16074;42.708;23.312;2022-11-20T01:36:11;0.97;;;0.97;;
787;SDS011;16074;42.708;23.312;2022-11-20T01:38:41;1.20;;;1.20;;
787;SDS011;16074;42.708;23.312;2022-11-20T01:41:09;1.13;;;0.93;;
787;SDS011;16074;42.708;23.312;2022-11-20T01:43:58;1.93;;;1.83;;
787;SDS011;16074;42.708;23.312;2022-11-20T01:46:25;0.97;;;0.87;;
787;SDS011;16074;42.708;23.312;2022-11-20T01:48:55;1.57;;;1.47;;
787;SDS011;16074;42.708;23.312;2022-11-20T01:51:28;2.07;;;1.97;;
787;SDS011;16074;42.708;23.312;2022-11-20T01:54:02;1.03;;;1.03;;
787;SDS011;16074;42.708;23.312;2022-11-20T01:56:35;1.03;;;1.03;;
787;SDS011;16074;42.708;23.312;2022-11-20T01:59:06;1.90;;;1.50;;
787;SDS011;16074;42.708;23.312;2022-11-20T02:01:37;1.17;;;1.17;;
787;SDS011;16074;42.708;23.312;2022-11-20T02:04:06;1.20;;;1.20;;
787;SDS011;16074;42.708;23.312;2022-11-20T02:06:38;2.43;;;1.80;;
787;SDS011;16074;42.708;23.312;2022-11-20T02:09:11;4.30;;;2.37;;
787;SDS011;16074;42.708;23.312;2022-11-20T02:11:39;1.70;;;1.60;;
787;SDS011;16074;42.708;23.312;2022-11-20T02:14:08;2.90;;;1.80;;
787;SDS011;16074;42.708;23.312;2022-11-20T02:16:36;1.10;;;1.00;;
787;SDS011;16074;42.708;23.312;2022-11-20T02:19:08;2.07;;;1.73;;
787;SDS011;16074;42.708;23.312;2022-11-20T02:21:47;1.23;;;1.10;;
787;SDS011;16074;42.708;23.312;2022-11-20T02:24:22;1.40;;;1.40;;
787;SDS011;16074;42.708;23.312;2022-11-20T02:26:51;0.80;;;0.80;;
787;SDS011;16074;42.708;23.312;2022-11-20T02:29:23;0.70;;;0.67;;
787;SDS011;16074;42.708;23.312;2022-11-20T02:31:54;0.63;;;0.63;;
787;SDS011;16074;42.708;23.312;2022-11-20T02:34:25;1.07;;;1.07;;
787;SDS011;16074;42.708;23.312;2022-11-20T02:36:53;1.40;;;1.30;;
787;SDS011;16074;42.708;23.312;2022-11-20T02:39:24;1.00;;;1.00;;
787;SDS011;16074;42.708;23.312;2022-11-20T02:41:54;3.10;;;1.30;;
787;SDS011;16074;42.708;23.312;2022-11-20T02:44:23;1.90;;;1.30;;
787;SDS011;16074;42.708;23.312;2022-11-20T02:46:52;1.63;;;1.20;;
787;SDS011;16074;42.708;23.312;2022-11-20T02:49:20;1.73;;;1.10;;
787;SDS011;16074;42.708;23.312;2022-11-20T02:51:49;1.20;;;1.10;;
787;SDS011;16074;42.708;23.312;2022-11-20T02:54:17;1.87;;;1.70;;
787;SDS011;16074;42.708;23.312;2022-11-20T02:56:46;1.20;;;1.20;;
787;SDS011;16074;42.708;23.312;2022-11-20T02:59:14;1.10;;;1.10;;
787;SDS011;16074;42.708;23.312;2022-11-20T03:01:42;2.93;;;1.50;;
787;SDS011;16074;42.708;23.312;2022-11-20T03:04:11;1.07;;;1.07;;
787;SDS011;16074;42.708;23.312;2022-11-20T03:06:39;1.20;;;1.20;;
787;SDS011;16074;42.708;23.312;2022-11-20T03:09:07;1.90;;;1.67;;
787;SDS011;16074;42.708;23.312;2022-11-20T03:11:35;1.30;;;1.30;;
787;SDS011;16074;42.708;23.312;2022-11-20T03:14:05;1.50;;;1.40;;
787;SDS011;16074;42.708;23.312;2022-11-20T03:16:33;1.90;;;1.70;;
787;SDS011;16074;42.708;23.312;2022-11-20T03:19:02;1.70;;;1.60;;
787;SDS011;16074;42.708;23.312;2022-11-20T03:21:30;1.77;;;1.67;;
787;SDS011;16074;42.708;23.312;2022-11-20T03:24:00;1.60;;;1.50;;
787;SDS011;16074;42.708;23.312;2022-11-20T03:26:29;2.63;;;1.73;;
787;SDS011;16074;42.708;23.312;2022-11-20T03:28:58;1.27;;;1.27;;
787;SDS011;16074;42.708;23.312;2022-11-20T03:31:30;2.63;;;1.60;;
787;SDS011;16074;42.708;23.312;2022-11-20T03:34:00;1.70;;;1.57;;
787;SDS011;16074;42.708;23.312;2022-11-20T03:36:28;1.53;;;1.43;;
787;SDS011;16074;42.708;23.312;2022-11-20T03:38:57;1.33;;;1.30;;
787;SDS011;16074;42.708;23.312;2022-11-20T03:41:26;2.20;;;1.50;;
787;SDS011;16074;42.708;23.312;2022-11-20T03:43:56;2.10;;;1.90;;
787;SDS011;16074;42.708;23.312;2022-11-20T03:46:26;1.30;;;1.10;;
787;SDS011;16074;42.708;23.312;2022-11-20T03:48:56;1.50;;;1.40;;
787;SDS011;16074;42.708;23.312;2022-11-20T03:51:25;3.80;;;1.33;;
787;SDS011;16074;42.708;23.312;2022-11-20T03:53:55;1.80;;;1.70;;
787;SDS011;16074;42.708;23.312;2022-11-20T03:56:26;1.70;;;1.60;;
787;SDS011;16074;42.708;23.312;2022-11-20T03:58:55;1.60;;;1.43;;
787;SDS011;16074;42.708;23.312;2022-11-20T04:01:24;1.60;;;1.50;;
787;SDS011;16074;42.708;23.312;2022-11-20T04:03:54;1.70;;;1.50;;
787;SDS011;16074;42.708;23.312;2022-11-20T04:06:26;3.70;;;1.30;;
787;SDS011;16074;42.708;23.312;2022-11-20T04:08:55;1.90;;;1.80;;
787;SDS011;16074;42.708;23.312;2022-11-20T04:11:26;1.90;;;1.80;;
787;SDS011;16074;42.708;23.312;2022-11-20T04:13:56;2.43;;;2.23;;
787;SDS011;16074;42.708;23.312;2022-11-20T04:16:26;2.67;;;2.47;;
787;SDS011;16074;42.708;23.312;2022-11-20T04:18:57;2.10;;;1.80;;
787;SDS011;16074;42.708;23.312;2022-11-20T04:21:28;4.20;;;1.50;;
787;SDS011;16074;42.708;23.312;2022-11-20T04:23:56;1.53;;;1.40;;
787;SDS011;16074;42.708;23.312;2022-11-20T04:26:26;1.10;;;1.10;;
787;SDS011;16074;42.708;23.312;2022-11-20T04:28:55;0.83;;;0.83;;
787;SDS011;16074;42.708;23.312;2022-11-20T04:31:25;1.63;;;1.27;;
787;SDS011;16074;42.708;23.312;2022-11-20T04:33:58;3.17;;;1.67;;
787;SDS011;16074;42.708;23.312;2022-11-20T04:36:28;1.67;;;1.60;;
787;SDS011;16074;42.708;23.312;2022-11-20T04:38:57;2.50;;;1.87;;
787;SDS011;16074;42.708;23.312;2022-11-20T04:41:28;1.53;;;1.40;;
787;SDS011;16074;42.708;23.312;2022-11-20T04:43:58;1.00;;;1.00;;
787;SDS011;16074;42.708;23.312;2022-11-20T04:46:30;2.17;;;1.40;;
787;SDS011;16074;42.708;23.312;2022-11-20T04:48:59;1.70;;;1.60;;
787;SDS011;16074;42.708;23.312;2022-11-20T04:51:29;3.17;;;1.40;;
787;SDS011;16074;42.708;23.312;2022-11-20T04:53:57;1.37;;;1.37;;
787;SDS011;16074;42.708;23.312;2022-11-20T04:56:26;1.50;;;1.37;;
787;SDS011;16074;42.708;23.312;2022-11-20T04:58:54;1.63;;;1.53;;
787;SDS011;16074;42.708;23.312;2022-11-20T05:01:23;2.10;;;1.33;;
787;SDS011;16074;42.708;23.312;2022-11-20T05:03:52;2.73;;;2.20;;
787;SDS011;16074;42.708;23.312;2022-11-20T05:06:20;1.30;;;1.30;;
787;SDS011;16074;42.708;23.312;2022-11-20T05:08:50;1.67;;;1.20;;
787;SDS011;16074;42.708;23.312;2022-11-20T05:11:19;6.07;;;1.70;;
787;SDS011;16074;42.708;23.312;2022-11-20T05:13:49;0.90;;;0.90;;
787;SDS011;16074;42.708;23.312;2022-11-20T05:16:19;1.20;;;1.10;;
787;SDS011;16074;42.708;23.312;2022-11-20T05:18:48;1.30;;;1.30;;
787;SDS011;16074;42.708;23.312;2022-11-20T05:21:16;2.77;;;1.83;;
787;SDS011;16074;42.708;23.312;2022-11-20T05:23:45;1.40;;;1.30;;
787;SDS011;16074;42.708;23.312;2022-11-20T05:26:16;1.50;;;1.40;;
787;SDS011;16074;42.708;23.312;2022-11-20T05:28:46;3.80;;;1.90;;
787;SDS011;16074;42.708;23.312;2022-11-20T05:31:15;1.10;;;1.10;;
787;SDS011;16074;42.708;23.312;2022-11-20T05:33:52;1.97;;;1.87;;
787;SDS011;16074;42.708;23.312;2022-11-20T05:36:20;1.47;;;1.37;;
787;SDS011;16074;42.708;23.312;2022-11-20T05:38:49;1.37;;;1.30;;
787;SDS011;16074;42.708;23.312;2022-11-20T05:41:22;1.77;;;1.67;;
787;SDS011;16074;42.708;23.312;2022-11-20T05:43:50;2.60;;;2.40;;
787;SDS011;16074;42.708;23.312;2022-11-20T05:46:20;2.90;;;1.67;;
787;SDS011;16074;42.708;23.312;2022-11-20T05:48:54;2.03;;;1.63;;
787;SDS011;16074;42.708;23.312;2022-11-20T05:51:24;1.37;;;1.27;;
787;SDS011;16074;42.708;23.312;2022-11-20T05:53:53;2.10;;;1.80;;
787;SDS011;16074;42.708;23.312;2022-11-20T05:56:24;4.10;;;2.00;;
787;SDS011;16074;42.708;23.312;2022-11-20T05:58:52;2.43;;;1.47;;
787;SDS011;16074;42.708;23.312;2022-11-20T06:01:21;2.40;;;2.20;;
787;SDS011;16074;42.708;23.312;2022-11-20T06:03:52;2.30;;;2.20;;
787;SDS011;16074;42.708;23.312;2022-11-20T06:06:21;2.57;;;2.37;;
787;SDS011;16074;42.708;23.312;2022-11-20T06:08:49;2.60;;;1.80;;
787;SDS011;16074;42.708;23.312;2022-11-20T06:11:17;4.53;;;2.03;;
787;SDS011;16074;42.708;23.312;2022-11-20T06:13:47;2.73;;;2.40;;
787;SDS011;16074;42.708;23.312;2022-11-20T06:16:17;2.50;;;1.57;;
787;SDS011;16074;42.708;23.312;2022-11-20T06:18:47;3.70;;;1.90;;
787;SDS011;16074;42.708;23.312;2022-11-20T06:21:17;2.60;;;2.47;;
787;SDS011;16074;42.708;23.312;2022-11-20T06:23:46;4.33;;;1.80;;
787;SDS011;16074;42.708;23.312;2022-11-20T06:26:19;2.17;;;1.63;;
787;SDS011;16074;42.708;23.312;2022-11-20T06:28:51;2.30;;;1.97;;
787;SDS011;16074;42.708;23.312;2022-11-20T06:31:20;2.00;;;1.83;;
787;SDS011;16074;42.708;23.312;2022-11-20T06:33:49;2.87;;;2.57;;
787;SDS011;16074;42.708;23.312;2022-11-20T06:36:19;3.83;;;2.10;;
787;SDS011;16074;42.708;23.312;2022-11-20T06:38:48;2.33;;;1.67;;
787;SDS011;16074;42.708;23.312;2022-11-20T06:41:18;3.40;;;1.63;;
787;SDS011;16074;42.708;23.312;2022-11-20T06:43:49;2.03;;;1.93;;
787;SDS011;16074;42.708;23.312;2022-11-20T06:46:19;2.20;;;2.10;;
787;SDS011;16074;42.708;23.312;2022-11-20T06:48:47;3.00;;;2.00;;
787;SDS011;16074;42.708;23.312;2022-11-20T06:51:16;2.40;;;2.10;;
787;SDS011;16074;42.708;23.312;2022-11-20T06:53:44;3.40;;;1.80;;
787;SDS011;16074;42.708;23.312;2022-11-20T06:56:13;2.13;;;2.03;;
787;SDS011;16074;42.708;23.312;2022-11-20T06:58:41;7.03;;;2.20;;
787;SDS011;16074;42.708;23.312;2022-11-20T07:01:11;3.73;;;2.03;;
787;SDS011;16074;42.708;23.312;2022-11-20T07:03:41;2.93;;;2.17;;
787;SDS011;16074;42.708;23.312;2022-11-20T07:06:13;3.17;;;2.13;;
787;SDS011;16074;42.708;23.312;2022-11-20T07:08:41;2.07;;;1.90;;
787;SDS011;16074;42.708;23.312;2022-11-20T07:11:11;1.87;;;1.80;;
787;SDS011;16074;42.708;23.312;2022-11-20T07:13:39;2.60;;;2.30;;
787;SDS011;16074;42.708;23.312;2022-11-20T07:16:07;2.80;;;2.60;;
787;SDS011;16074;42.708;23.312;2022-11-20T07:18:37;2.10;;;2.00;;
787;SDS011;16074;42.708;23.312;2022-11-20T07:21:06;3.90;;;2.10;;
787;SDS011;16074;42.708;23.312;2022-11-20T07:23:36;2.13;;;2.03;;
787;SDS011;16074;42.708;23.312;2022-11-20T07:26:05;2.20;;;2.10;;
787;SDS011;16074;42.708;23.312;2022-11-20T07:28:34;3.77;;;3.00;;
787;SDS011;16074;42.708;23.312;2022-11-20T07:31:03;2.13;;;2.03;;
787;SDS011;16074;42.708;23.312;2022-11-20T07:33:33;5.00;;;2.60;;
787;SDS011;16074;42.708;23.312;2022-11-20T07:36:03;3.43;;;2.40;;
787;SDS011;16074;42.708;23.312;2022-11-20T07:38:32;7.23;;;2.80;;
787;SDS011;16074;42.708;23.312;2022-11-20T07:41:00;2.37;;;2.17;;
787;SDS011;16074;42.708;23.312;2022-11-20T07:43:29;3.07;;;2.30;;
787;SDS011;16074;42.708;23.312;2022-11-20T07:46:03;4.17;;;2.50;;
787;SDS011;16074;42.708;23.312;2022-11-20T07:48:32;3.47;;;2.40;;
787;SDS011;16074;42.708;23.312;2022-11-20T07:51:00;2.73;;;2.53;;
787;SDS011;16074;42.708;23.312;2022-11-20T07:53:30;3.10;;;2.80;;
787;SDS011;16074;42.708;23.312;2022-11-20T07:55:59;3.53;;;2.33;;
787;SDS011;16074;42.708;23.312;2022-11-20T07:58:28;3.27;;;2.97;;
787;SDS011;16074;42.708;23.312;2022-11-20T08:01:02;3.43;;;2.10;;
787;SDS011;16074;42.708;23.312;2022-11-20T08:03:30;3.37;;;3.00;;
787;SDS011;16074;42.708;23.312;2022-11-20T08:05:59;4.00;;;2.70;;
787;SDS011;16074;42.708;23.312;2022-11-20T08:08:29;5.67;;;2.67;;
787;SDS011;16074;42.708;23.312;2022-11-20T08:11:00;9.67;;;7.63;;
787;SDS011;16074;42.708;23.312;2022-11-20T08:13:42;6.37;;;5.00;;
787;SDS011;16074;42.708;23.312;2022-11-20T08:16:28;3.77;;;3.47;;
787;SDS011;16074;42.708;23.312;2022-11-20T08:18:56;2.60;;;2.40;;
787;SDS011;16074;42.708;23.312;2022-11-20T08:21:24;3.40;;;2.97;;
787;SDS011;16074;42.708;23.312;2022-11-20T08:23:54;3.73;;;3.00;;
787;SDS011;16074;42.708;23.312;2022-11-20T08:26:22;8.20;;;3.60;;
787;SDS011;16074;42.708;23.312;2022-11-20T08:28:52;4.80;;;3.90;;
787;SDS011;16074;42.708;23.312;2022-11-20T08:31:22;7.87;;;5.20;;
787;SDS011;16074;42.708;23.312;2022-11-20T08:33:50;4.93;;;4.40;;
787;SDS011;16074;42.708;23.312;2022-11-20T08:36:19;3.50;;;3.07;;
787;SDS011;16074;42.708;23.312;2022-11-20T08:38:48;5.10;;;3.80;;
787;SDS011;16074;42.708;23.312;2022-11-20T08:41:18;3.77;;;3.50;;
787;SDS011;16074;42.708;23.312;2022-11-20T08:43:54;3.83;;;3.53;;
787;SDS011;16074;42.708;23.312;2022-11-20T08:46:24;4.27;;;3.10;;
787;SDS011;16074;42.708;23.312;2022-11-20T08:48:54;4.00;;;3.80;;
787;SDS011;16074;42.708;23.312;2022-11-20T08:51:22;3.20;;;3.00;;
787;SDS011;16074;42.708;23.312;2022-11-20T08:53:50;2.03;;;1.93;;
787;SDS011;16074;42.708;23.312;2022-11-20T08:56:20;1.70;;;1.70;;
787;SDS011;16074;42.708;23.312;2022-11-20T08:58:49;2.90;;;2.70;;
787;SDS011;16074;42.708;23.312;2022-11-20T09:01:37;3.77;;;3.37;;
787;SDS011;16074;42.708;23.312;2022-11-20T09:04:06;7.13;;;4.00;;
787;SDS011;16074;42.708;23.312;2022-11-20T09:06:34;7.20;;;5.00;;
787;SDS011;16074;42.708;23.312;2022-11-20T09:09:02;5.53;;;4.60;;
787;SDS011;16074;42.708;23.312;2022-11-20T09:11:34;7.30;;;6.60;;
787;SDS011;16074;42.708;23.312;2022-11-20T09:14:02;8.80;;;6.60;;
787;SDS011;16074;42.708;23.312;2022-11-20T09:16:31;6.97;;;6.27;;
787;SDS011;16074;42.708;23.312;2022-11-20T09:18:59;6.90;;;5.27;;
787;SDS011;16074;42.708;23.312;2022-11-20T09:21:47;9.53;;;5.73;;
787;SDS011;16074;42.708;23.312;2022-11-20T09:24:15;5.17;;;4.67;;
787;SDS011;16074;42.708;23.312;2022-11-20T09:26:45;3.80;;;3.50;;
787;SDS011;16074;42.708;23.312;2022-11-20T09:29:14;4.73;;;2.23;;
787;SDS011;16074;42.708;23.312;2022-11-20T09:31:42;2.40;;;2.30;;
787;SDS011;16074;42.708;23.312;2022-11-20T09:34:10;2.87;;;1.93;;
787;SDS011;16074;42.708;23.312;2022-11-20T09:36:38;3.43;;;2.30;;
787;SDS011;16074;42.708;23.312;2022-11-20T09:39:06;2.20;;;2.10;;
787;SDS011;16074;42.708;23.312;2022-11-20T09:41:49;6.20;;;2.47;;
787;SDS011;16074;42.708;23.312;2022-11-20T09:44:34;4.17;;;3.77;;
787;SDS011;16074;42.708;23.312;2022-11-20T09:47:17;3.67;;;3.37;;
787;SDS011;16074;42.708;23.312;2022-11-20T09:49:58;2.90;;;2.70;;
787;SDS011;16074;42.708;23.312;2022-11-20T09:52:37;4.07;;;3.77;;
787;SDS011;16074;42.708;23.312;2022-11-20T09:55:17;6.40;;;4.10;;
787;SDS011;16074;42.708;23.312;2022-11-20T09:57:47;8.60;;;5.60;;
787;SDS011;16074;42.708;23.312;2022-11-20T10:00:18;6.77;;;6.13;;
787;SDS011;16074;42.708;23.312;2022-11-20T10:02:48;9.33;;;5.20;;
787;SDS011;16074;42.708;23.312;2022-11-20T10:05:24;4.27;;;3.87;;
787;SDS011;16074;42.708;23.312;2022-11-20T10:08:07;6.70;;;5.63;;
787;SDS011;16074;42.708;23.312;2022-11-20T10:10:45;5.30;;;4.80;;
787;SDS011;16074;42.708;23.312;2022-11-20T10:16:15;3.60;;;3.30;;
787;SDS011;16074;42.708;23.312;2022-11-20T10:18:55;4.20;;;2.90;;
787;SDS011;16074;42.708;23.312;2022-11-20T10:21:36;6.73;;;2.70;;
787;SDS011;16074;42.708;23.312;2022-11-20T10:27:25;5.20;;;3.90;;
787;SDS011;16074;42.708;23.312;2022-11-20T10:30:10;6.53;;;4.70;;
787;SDS011;16074;42.708;23.312;2022-11-20T10:32:41;7.20;;;5.10;;
787;SDS011;16074;42.708;23.312;2022-11-20T10:35:16;5.77;;;5.07;;
787;SDS011;16074;42.708;23.312;2022-11-20T10:37:51;4.80;;;3.97;;
787;SDS011;16074;42.708;23.312;2022-11-20T10:40:25;3.90;;;3.20;;
787;SDS011;16074;42.708;23.312;2022-11-20T10:43:00;11.20;;;9.37;;
787;SDS011;16074;42.708;23.312;2022-11-20T10:45:38;26.77;;;14.67;;
787;SDS011;16074;42.708;23.312;2022-11-20T10:48:15;8.23;;;7.20;;
787;SDS011;16074;42.708;23.312;2022-11-20T10:50:48;13.43;;;7.23;;
787;SDS011;16074;42.708;23.312;2022-11-20T10:53:35;9.00;;;7.10;;
787;SDS011;16074;42.708;23.312;2022-11-20T10:56:14;6.70;;;6.20;;
787;SDS011;16074;42.708;23.312;2022-11-20T10:58:49;13.50;;;9.13;;
787;SDS011;16074;42.708;23.312;2022-11-20T11:01:29;8.33;;;7.43;;
787;SDS011;16074;42.708;23.312;2022-11-20T11:03:58;8.03;;;7.20;;
787;SDS011;16074;42.708;23.312;2022-11-20T11:06:28;9.67;;;4.90;;
787;SDS011;16074;42.708;23.312;2022-11-20T11:09:04;6.03;;;5.10;;
787;SDS011;16074;42.708;23.312;2022-11-20T11:11:40;1.90;;;1.70;;
787;SDS011;16074;42.708;23.312;2022-11-20T11:14:09;5.82;;;1.52;;
787;SDS011;16074;42.708;23.312;2022-11-20T11:16:48;5.57;;;1.95;;
787;SDS011;16074;42.708;23.312;2022-11-20T11:19:17;2.75;;;2.55;;
787;SDS011;16074;42.708;23.312;2022-11-20T11:21:46;1.65;;;1.60;;
787;SDS011;16074;42.708;23.312;2022-11-20T11:24:21;1.73;;;1.63;;
787;SDS011;16074;42.708;23.312;2022-11-20T11:27:11;3.08;;;2.03;;
787;SDS011;16074;42.708;23.312;2022-11-20T11:29:43;2.08;;;1.98;;
787;SDS011;16074;42.708;23.312;2022-11-20T11:32:14;5.75;;;1.80;;
787;SDS011;16074;42.708;23.312;2022-11-20T11:34:45;4.53;;;1.30;;
787;SDS011;16074;42.708;23.312;2022-11-20T11:37:26;1.65;;;1.42;;
787;SDS011;16074;42.708;23.312;2022-11-20T11:40:01;1.13;;;1.10;;
787;SDS011;16074;42.708;23.312;2022-11-20T11:42:52;1.15;;;0.80;;
787;SDS011;16074;42.708;23.312;2022-11-20T11:45:24;1.40;;;1.30;;
787;SDS011;16074;42.708;23.312;2022-11-20T11:47:53;1.98;;;1.20;;
787;SDS011;16074;42.708;23.312;2022-11-20T11:50:24;5.85;;;2.50;;
787;SDS011;16074;42.708;23.312;2022-11-20T11:52:59;3.45;;;1.42;;
787;SDS011;16074;42.708;23.312;2022-11-20T11:55:37;3.75;;;1.70;;
787;SDS011;16074;42.708;23.312;2022-11-20T11:58:30;2.08;;;1.50;;
787;SDS011;16074;42.708;23.312;2022-11-20T12:01:11;1.38;;;1.38;;
787;SDS011;16074;42.708;23.312;2022-11-20T12:03:52;2.30;;;2.10;;
787;SDS011;16074;42.708;23.312;2022-11-20T12:06:26;2.03;;;1.92;;
787;SDS011;16074;42.708;23.312;2022-11-20T12:08:59;2.53;;;2.35;;
787;SDS011;16074;42.708;23.312;2022-11-20T12:11:31;2.50;;;1.80;;
787;SDS011;16074;42.708;23.312;2022-11-20T12:14:04;4.30;;;2.20;;
787;SDS011;16074;42.708;23.312;2022-11-20T12:16:39;2.95;;;1.75;;
787;SDS011;16074;42.708;23.312;2022-11-20T12:19:10;5.28;;;2.40;;
787;SDS011;16074;42.708;23.312;2022-11-20T12:21:43;1.63;;;1.48;;
787;SDS011;16074;42.708;23.312;2022-11-20T12:24:31;1.13;;;1.00;;
787;SDS011;16074;42.708;23.312;2022-11-20T12:27:11;4.53;;;3.38;;
787;SDS011;16074;42.708;23.312;2022-11-20T12:29:56;5.45;;;1.23;;
787;SDS011;16074;42.708;23.312;2022-11-20T12:41:55;2.97;;;1.13;;
787;SDS011;16074;42.708;23.312;2022-11-20T12:45:14;1.00;;;1.00;;
787;SDS011;16074;42.708;23.312;2022-11-20T12:51:20;2.92;;;2.58;;
787;SDS011;16074;42.708;23.312;2022-11-20T12:54:08;5.00;;;3.53;;
787;SDS011;16074;42.708;23.312;2022-11-20T12:56:57;5.00;;;4.50;;
787;SDS011;16074;42.708;23.312;2022-11-20T12:59:37;4.78;;;4.10;;
787;SDS011;16074;42.708;23.312;2022-11-20T13:02:23;6.60;;;6.07;;
787;SDS011;16074;42.708;23.312;2022-11-20T13:05:03;8.85;;;7.85;;
787;SDS011;16074;42.708;23.312;2022-11-20T13:07:43;11.48;;;7.00;;
787;SDS011;16074;42.708;23.312;2022-11-20T13:10:14;8.55;;;6.38;;
787;SDS011;16074;42.708;23.312;2022-11-20T13:12:51;8.38;;;5.35;;
787;SDS011;16074;42.708;23.312;2022-11-20T13:15:31;5.03;;;4.55;;
787;SDS011;16074;42.708;23.312;2022-11-20T13:18:08;6.28;;;5.55;;
787;SDS011;16074;42.708;23.312;2022-11-20T13:20:41;9.13;;;7.45;;
787;SDS011;16074;42.708;23.312;2022-11-20T13:23:22;6.43;;;5.75;;
787;SDS011;16074;42.708;23.312;2022-11-20T13:26:01;6.93;;;4.93;;
787;SDS011;16074;42.708;23.312;2022-11-20T13:28:31;4.07;;;3.63;;
787;SDS011;16074;42.708;23.312;2022-11-20T13:31:00;4.32;;;3.92;;
787;SDS011;16074;42.708;23.312;2022-11-20T13:33:29;4.97;;;4.57;;
787;SDS011;16074;42.708;23.312;2022-11-20T13:35:59;20.20;;;16.50;;
787;SDS011;16074;42.708;23.312;2022-11-20T13:38:46;20.90;;;18.75;;
787;SDS011;16074;42.708;23.312;2022-11-20T13:41:22;13.52;;;12.32;;
787;SDS011;16074;42.708;23.312;2022-11-20T13:44:10;12.85;;;9.70;;
787;SDS011;16074;42.708;23.312;2022-11-20T13:46:43;7.10;;;6.50;;
787;SDS011;16074;42.708;23.312;2022-11-20T13:49:17;9.98;;;8.18;;
787;SDS011;16074;42.708;23.312;2022-11-20T13:51:49;7.47;;;6.78;;
787;SDS011;16074;42.708;23.312;2022-11-20T13:54:25;9.98;;;8.98;;
787;SDS011;16074;42.708;23.312;2022-11-20T13:57:27;12.55;;;11.45;;
787;SDS011;16074;42.708;23.312;2022-11-20T14:00:10;17.33;;;12.68;;
787;SDS011;16074;42.708;23.312;2022-11-20T14:02:40;12.63;;;11.30;;
787;SDS011;16074;42.708;23.312;2022-11-20T14:05:15;10.00;;;7.47;;
787;SDS011;16074;42.708;23.312;2022-11-20T14:07:47;8.43;;;7.60;;
787;SDS011;16074;42.708;23.312;2022-11-20T14:10:21;11.20;;;9.05;;
787;SDS011;16074;42.708;23.312;2022-11-20T14:12:57;8.82;;;7.63;;
787;SDS011;16074;42.708;23.312;2022-11-20T14:15:27;8.57;;;7.78;;
787;SDS011;16074;42.708;23.312;2022-11-20T14:17:58;8.80;;;7.85;;
787;SDS011;16074;42.708;23.312;2022-11-20T14:20:27;7.80;;;7.10;;
787;SDS011;16074;42.708;23.312;2022-11-20T14:22:57;8.07;;;6.82;;
787;SDS011;16074;42.708;23.312;2022-11-20T14:25:27;6.22;;;4.72;;
787;SDS011;16074;42.708;23.312;2022-11-20T14:27:58;5.15;;;4.65;;
787;SDS011;16074;42.708;23.312;2022-11-20T14:30:28;9.50;;;5.40;;
787;SDS011;16074;42.708;23.312;2022-11-20T14:33:03;10.23;;;5.68;;
787;SDS011;16074;42.708;23.312;2022-11-20T14:35:34;7.18;;;5.03;;
787;SDS011;16074;42.708;23.312;2022-11-20T14:38:13;4.97;;;4.57;;
787;SDS011;16074;42.708;23.312;2022-11-20T14:40:46;5.65;;;5.25;;
787;SDS011;16074;42.708;23.312;2022-11-20T14:43:18;9.50;;;7.78;;
787;SDS011;16074;42.708;23.312;2022-11-20T14:45:52;5.43;;;4.00;;
787;SDS011;16074;42.708;23.312;2022-11-20T14:48:28;4.53;;;4.15;;
787;SDS011;16074;42.708;23.312;2022-11-20T14:50:59;7.47;;;4.88;;
787;SDS011;16074;42.708;23.312;2022-11-20T14:53:27;6.63;;;3.83;;
787;SDS011;16074;42.708;23.312;2022-11-20T14:55:57;4.70;;;4.22;;
787;SDS011;16074;42.708;23.312;2022-11-20T14:58:27;7.75;;;5.20;;
787;SDS011;16074;42.708;23.312;2022-11-20T15:00:57;3.92;;;3.58;;
787;SDS011;16074;42.708;23.312;2022-11-20T15:03:33;5.18;;;3.75;;
787;SDS011;16074;42.708;23.312;2022-11-20T15:06:03;6.75;;;4.90;;
787;SDS011;16074;42.708;23.312;2022-11-20T15:08:31;7.63;;;5.10;;
787;SDS011;16074;42.708;23.312;2022-11-20T15:11:01;6.70;;;5.40;;
787;SDS011;16074;42.708;23.312;2022-11-20T15:13:31;10.50;;;7.05;;
787;SDS011;16074;42.708;23.312;2022-11-20T15:16:00;9.73;;;7.45;;
787;SDS011;16074;42.708;23.312;2022-11-20T15:18:31;7.63;;;6.60;;
787;SDS011;16074;42.708;23.312;2022-11-20T15:21:06;7.45;;;5.10;;
787;SDS011;16074;42.708;23.312;2022-11-20T15:23:38;7.57;;;6.85;;
787;SDS011;16074;42.708;23.312;2022-11-20T15:26:08;13.02;;;11.73;;
787;SDS011;16074;42.708;23.312;2022-11-20T15:28:45;7.50;;;6.20;;
787;SDS011;16074;42.708;23.312;2022-11-20T15:31:17;8.82;;;6.85;;
787;SDS011;16074;42.708;23.312;2022-11-20T15:33:47;4.80;;;4.40;;
787;SDS011;16074;42.708;23.312;2022-11-20T15:36:16;3.72;;;3.38;;
787;SDS011;16074;42.708;23.312;2022-11-20T15:38:44;6.82;;;3.35;;
787;SDS011;16074;42.708;23.312;2022-11-20T15:41:14;3.40;;;3.20;;
787;SDS011;16074;42.708;23.312;2022-11-20T15:43:42;6.47;;;3.63;;
787;SDS011;16074;42.708;23.312;2022-11-20T15:46:11;3.15;;;2.95;;
787;SDS011;16074;42.708;23.312;2022-11-20T15:48:42;4.63;;;3.80;;